createdAt,value
2022-10-26T00:01:45.283Z,13.51
2022-10-26T00:04:46.744Z,13.39
2022-10-26T00:07:48.667Z,13.40
2022-10-26T00:10:50.085Z,13.35
2022-10-26T00:13:51.563Z,13.35
2022-10-26T00:16:53.009Z,13.34
2022-10-26T00:19:54.982Z,13.33
2022-10-26T00:22:56.423Z,13.31
2022-10-26T00:25:58.256Z,13.27
2022-10-26T00:28:59.725Z,13.25
2022-10-26T00:32:01.192Z,13.22
2022-10-26T00:35:15.826Z,13.24
2022-10-26T00:38:24.739Z,13.24
2022-10-26T00:41:31.119Z,13.24
2022-10-26T00:44:55.561Z,13.21
2022-10-26T00:47:59.829Z,13.14
2022-10-26T00:51:03.033Z,13.05
2022-10-26T00:54:06.619Z,12.96
2022-10-26T00:57:08.052Z,12.86
2022-10-26T01:00:09.733Z,12.76
2022-10-26T01:03:11.239Z,12.70
2022-10-26T01:06:13.485Z,12.67
2022-10-26T01:09:15.526Z,12.61
2022-10-26T01:12:16.927Z,12.63
2022-10-26T01:15:18.715Z,12.72
2022-10-26T01:18:24.766Z,12.84
2022-10-26T01:21:26.140Z,12.93
2022-10-26T01:24:46.850Z,12.97
2022-10-26T01:27:51.086Z,13.01
2022-10-26T01:30:54.479Z,13.03
2022-10-26T01:33:59.927Z,13.03
2022-10-26T01:37:09.101Z,13.03
2022-10-26T01:40:31.083Z,13.05
2022-10-26T01:43:35.708Z,12.99
2022-10-26T01:46:39.821Z,13.00
2022-10-26T01:49:55.448Z,13.00
2022-10-26T01:52:56.863Z,13.06
2022-10-26T01:55:58.915Z,13.05
2022-10-26T01:59:13.601Z,12.98
2022-10-26T02:02:15.004Z,12.99
2022-10-26T02:05:16.413Z,12.97
2022-10-26T02:08:28.504Z,12.99
2022-10-26T02:11:34.000Z,13.07
2022-10-26T02:14:50.100Z,13.10
2022-10-26T02:17:53.472Z,13.16
2022-10-26T02:20:57.717Z,13.20
2022-10-26T02:23:59.412Z,13.21
2022-10-26T02:27:01.680Z,13.25
2022-10-26T02:30:04.867Z,13.31
2022-10-26T02:33:07.677Z,13.29
2022-10-26T02:36:12.156Z,13.21
2022-10-26T02:39:16.392Z,13.22
2022-10-26T02:42:18.514Z,13.22
2022-10-26T02:45:25.231Z,13.21
2022-10-26T02:48:26.599Z,13.16
2022-10-26T02:51:35.048Z,13.16
2022-10-26T02:54:42.276Z,13.16
2022-10-26T02:57:47.349Z,13.19
2022-10-26T03:00:49.471Z,13.25
2022-10-26T03:03:50.937Z,13.29
2022-10-26T03:06:53.511Z,13.28
2022-10-26T03:09:54.884Z,13.26
2022-10-26T03:12:56.268Z,13.13
2022-10-26T03:15:57.764Z,12.99
2022-10-26T03:18:59.184Z,12.98
2022-10-26T03:22:00.540Z,13.00
2022-10-26T03:25:02.211Z,13.05
2022-10-26T03:28:04.855Z,13.06
2022-10-26T03:31:08.604Z,13.04
2022-10-26T03:34:09.991Z,13.05
2022-10-26T03:37:11.536Z,13.16
2022-10-26T03:40:12.997Z,13.23
2022-10-26T03:43:14.401Z,13.26
2022-10-26T03:46:15.856Z,13.27
2022-10-26T03:49:17.214Z,13.25
2022-10-26T03:52:18.639Z,13.23
2022-10-26T03:55:20.000Z,13.25
2022-10-26T03:58:21.553Z,13.32
2022-10-26T04:01:23.040Z,13.34
2022-10-26T04:04:24.537Z,13.36
2022-10-26T04:07:26.073Z,13.41
2022-10-26T04:10:27.544Z,13.41
2022-10-26T04:13:28.940Z,13.38
2022-10-26T04:16:33.283Z,13.33
2022-10-26T04:19:34.997Z,13.29
2022-10-26T04:22:36.591Z,13.28
2022-10-26T04:25:38.245Z,13.27
2022-10-26T04:28:39.652Z,13.25
2022-10-26T04:34:48.350Z,13.24
2022-10-26T04:37:49.781Z,13.27
2022-10-26T04:40:51.358Z,13.24
2022-10-26T04:43:52.731Z,13.25
2022-10-26T04:46:54.221Z,13.26
2022-10-26T04:49:55.653Z,13.26
2022-10-26T04:52:57.447Z,13.25
2022-10-26T04:55:59.658Z,13.23
2022-10-26T04:59:01.135Z,13.22
2022-10-26T05:02:02.774Z,13.22
2022-10-26T05:08:10.713Z,13.23
2022-10-26T05:11:12.181Z,13.25
2022-10-26T05:14:13.628Z,13.24
2022-10-26T05:17:15.050Z,13.24
2022-10-26T05:20:16.452Z,13.20
2022-10-26T05:23:18.698Z,13.18
2022-10-26T05:26:20.282Z,13.15
2022-10-26T05:29:21.963Z,13.12
2022-10-26T05:32:23.460Z,13.14
2022-10-26T05:35:25.862Z,13.17
2022-10-26T05:41:33.713Z,13.18
2022-10-26T05:44:35.144Z,13.15
2022-10-26T05:47:43.183Z,13.12
2022-10-26T05:50:44.663Z,13.07
2022-10-26T05:53:46.204Z,13.05
2022-10-26T05:56:47.788Z,13.02
2022-10-26T05:59:49.421Z,13.00
2022-10-26T06:03:19.307Z,12.96
2022-10-26T06:06:22.146Z,12.95
2022-10-26T06:09:23.673Z,12.93
2022-10-26T06:12:26.603Z,12.95
2022-10-26T06:15:28.461Z,12.97
2022-10-26T06:18:51.180Z,13.02
2022-10-26T06:22:12.944Z,13.02
2022-10-26T06:25:33.037Z,13.09
2022-10-26T06:28:34.523Z,13.17
2022-10-26T06:31:36.188Z,13.23
2022-10-26T06:34:51.515Z,13.30
2022-10-26T06:37:58.563Z,13.37
2022-10-26T06:41:06.284Z,13.46
2022-10-26T06:44:12.283Z,13.51
2022-10-26T06:47:21.295Z,13.52
2022-10-26T06:50:38.449Z,13.55
2022-10-26T06:53:43.936Z,13.56
2022-10-26T06:56:46.132Z,13.59
2022-10-26T06:59:56.680Z,13.72
2022-10-26T07:02:59.030Z,13.95
2022-10-26T07:06:00.500Z,14.12
2022-10-26T07:09:01.924Z,14.15
2022-10-26T07:12:03.452Z,14.14
2022-10-26T07:15:05.576Z,14.20
2022-10-26T07:18:07.881Z,14.31
2022-10-26T07:21:10.395Z,14.41
2022-10-26T07:24:11.812Z,14.58
2022-10-26T07:27:13.254Z,14.76
2022-10-26T07:30:14.690Z,14.91
2022-10-26T07:33:16.115Z,14.93
2022-10-26T07:36:17.560Z,14.93
2022-10-26T07:39:19.041Z,15.03
2022-10-26T07:42:20.467Z,15.01
2022-10-26T07:45:21.872Z,15.03
2022-10-26T07:48:23.340Z,15.08
2022-10-26T07:51:24.873Z,15.43
2022-10-26T07:54:26.326Z,15.59
2022-10-26T07:57:30.588Z,15.62
2022-10-26T08:00:40.982Z,15.89
2022-10-26T08:03:45.292Z,15.95
2022-10-26T08:06:47.302Z,16.10
2022-10-26T08:09:48.667Z,16.28
2022-10-26T08:12:52.149Z,16.43
2022-10-26T08:16:00.779Z,16.52
2022-10-26T08:19:02.287Z,16.43
2022-10-26T08:22:03.698Z,16.40
2022-10-26T08:25:05.383Z,16.42
2022-10-26T08:28:06.823Z,16.43
2022-10-26T08:31:08.271Z,16.50
2022-10-26T08:34:09.689Z,16.60
2022-10-26T08:37:11.197Z,16.63
2022-10-26T08:40:15.979Z,16.86
2022-10-26T08:43:17.316Z,17.20
2022-10-26T08:46:18.691Z,17.42
2022-10-26T08:49:29.631Z,17.59
2022-10-26T08:52:38.518Z,17.70
2022-10-26T08:58:55.528Z,17.74
2022-10-26T09:01:56.998Z,17.85
2022-10-26T09:04:59.388Z,17.84
2022-10-26T09:08:07.339Z,17.89
2022-10-26T09:11:27.702Z,17.97
2022-10-26T09:14:47.982Z,18.01
2022-10-26T09:17:55.525Z,18.15
2022-10-26T09:21:00.004Z,18.36
2022-10-26T09:24:06.046Z,18.48
2022-10-26T09:27:16.756Z,18.61
2022-10-26T09:30:19.965Z,18.78
2022-10-26T09:33:24.134Z,18.98
2022-10-26T09:36:25.516Z,19.24
2022-10-26T09:39:36.157Z,19.49
2022-10-26T09:42:46.928Z,19.74
2022-10-26T09:45:52.938Z,19.80
2022-10-26T09:48:58.098Z,19.67
2022-10-26T09:51:59.607Z,19.73
2022-10-26T09:55:00.993Z,19.74
2022-10-26T09:58:03.823Z,19.62
2022-10-26T10:01:05.273Z,19.51
2022-10-26T10:04:12.629Z,19.64
2022-10-26T10:07:14.264Z,19.81
2022-10-26T10:10:17.670Z,20.15
2022-10-26T10:13:23.552Z,20.42
2022-10-26T10:16:25.116Z,20.29
2022-10-26T10:19:26.531Z,20.12
2022-10-26T10:22:27.919Z,19.98
2022-10-26T10:25:33.629Z,19.76
2022-10-26T10:28:35.717Z,19.65
2022-10-26T10:31:37.460Z,19.68
2022-10-26T10:34:38.869Z,19.81
2022-10-26T10:37:46.883Z,19.90
2022-10-26T10:40:53.260Z,19.96
2022-10-26T10:44:00.689Z,20.07
2022-10-26T10:47:06.423Z,20.10
2022-10-26T10:50:15.654Z,20.20
2022-10-26T10:53:24.345Z,20.05
2022-10-26T10:56:28.781Z,19.83
2022-10-26T10:59:56.450Z,19.85
2022-10-26T11:03:16.805Z,20.03
2022-10-26T11:06:22.874Z,20.16
2022-10-26T11:09:27.265Z,20.24
2022-10-26T11:12:31.406Z,20.29
2022-10-26T11:15:34.761Z,20.36
2022-10-26T11:18:39.621Z,20.41
2022-10-26T11:21:42.042Z,20.58
2022-10-26T11:24:43.415Z,20.62
2022-10-26T11:27:54.806Z,20.70
2022-10-26T11:31:02.752Z,20.66
2022-10-26T11:34:11.384Z,20.66
2022-10-26T11:37:21.662Z,20.69
2022-10-26T11:40:27.688Z,20.69
2022-10-26T11:43:38.139Z,20.74
2022-10-26T11:46:42.988Z,20.80
2022-10-26T11:50:03.349Z,20.87
2022-10-26T11:53:13.696Z,20.91
2022-10-26T11:56:21.596Z,20.91
2022-10-26T11:59:26.989Z,20.98
2022-10-26T12:02:33.469Z,21.02
2022-10-26T12:05:42.642Z,21.06
2022-10-26T12:08:48.138Z,21.10
2022-10-26T12:11:52.281Z,21.06
2022-10-26T12:14:59.591Z,21.10
2022-10-26T12:18:20.305Z,21.09
2022-10-26T12:21:29.779Z,21.13
2022-10-26T12:24:35.496Z,21.13
2022-10-26T12:27:39.841Z,21.20
2022-10-26T12:30:41.361Z,21.12
2022-10-26T12:33:50.182Z,21.10
2022-10-26T12:36:57.396Z,21.14
2022-10-26T12:40:17.657Z,21.14
2022-10-26T12:43:19.019Z,21.13
2022-10-26T12:46:26.336Z,21.10
2022-10-26T12:49:47.495Z,21.11
2022-10-26T12:52:51.976Z,21.20
2022-10-26T12:56:03.462Z,21.25
2022-10-26T12:59:12.869Z,21.25
2022-10-26T13:02:30.397Z,21.26
2022-10-26T13:05:31.830Z,21.25
2022-10-26T13:08:41.451Z,21.22
2022-10-26T13:11:46.245Z,21.27
2022-10-26T13:15:05.479Z,21.30
2022-10-26T13:18:06.812Z,21.30
2022-10-26T13:21:14.951Z,21.31
2022-10-26T13:24:16.395Z,21.35
2022-10-26T13:27:17.812Z,21.41
2022-10-26T13:30:36.420Z,21.42
2022-10-26T13:33:39.722Z,21.28
2022-10-26T13:36:41.076Z,21.31
2022-10-26T13:39:43.627Z,21.37
2022-10-26T13:42:47.326Z,21.48
2022-10-26T13:45:56.150Z,21.52
2022-10-26T13:49:05.936Z,21.51
2022-10-26T13:52:14.773Z,21.50
2022-10-26T13:55:42.513Z,21.43
2022-10-26T13:58:52.412Z,21.55
2022-10-26T14:02:26.356Z,21.61
2022-10-26T14:05:27.974Z,21.59
2022-10-26T14:08:32.224Z,21.61
2022-10-26T14:11:42.980Z,21.62
2022-10-26T14:14:44.436Z,21.70
2022-10-26T14:17:49.805Z,21.75
2022-10-26T14:20:59.904Z,21.80
2022-10-26T14:24:07.594Z,21.82
2022-10-26T14:27:19.357Z,21.77
2022-10-26T14:30:31.568Z,21.74
2022-10-26T14:33:33.151Z,22.06
2022-10-26T14:36:39.960Z,22.37
2022-10-26T14:39:46.551Z,23.46
2022-10-26T14:42:52.563Z,24.51
2022-10-26T14:45:54.489Z,24.98
2022-10-26T14:48:57.364Z,25.16
2022-10-26T14:52:00.152Z,24.25
2022-10-26T14:55:05.198Z,23.37
2022-10-26T14:58:08.513Z,22.66
2022-10-26T15:01:17.211Z,22.17
2022-10-26T15:04:27.688Z,21.92
2022-10-26T15:07:36.921Z,21.64
2022-10-26T15:10:38.448Z,21.51
2022-10-26T15:13:41.941Z,21.45
2022-10-26T15:16:50.934Z,21.43
2022-10-26T15:19:53.578Z,21.36
2022-10-26T15:22:56.414Z,21.19
2022-10-26T15:25:59.564Z,21.05
2022-10-26T15:29:01.019Z,20.86
2022-10-26T15:35:18.840Z,20.55
2022-10-26T15:38:20.220Z,20.33
2022-10-26T15:41:29.570Z,20.21
2022-10-26T15:44:30.972Z,20.01
2022-10-26T15:47:33.574Z,19.86
2022-10-26T15:50:36.616Z,19.58
2022-10-26T15:53:43.387Z,19.37
2022-10-26T15:56:44.836Z,19.20
2022-10-26T15:59:46.245Z,18.90
2022-10-26T16:02:47.800Z,18.64
2022-10-26T16:05:52.366Z,18.48
2022-10-26T16:08:55.383Z,18.31
2022-10-26T16:12:00.883Z,18.12
2022-10-26T16:15:06.218Z,17.97
2022-10-26T16:18:08.247Z,17.79
2022-10-26T16:21:13.123Z,17.57
2022-10-26T16:24:14.660Z,17.46
2022-10-26T16:27:16.151Z,17.31
2022-10-26T16:30:17.918Z,17.20
2022-10-26T16:33:19.567Z,17.03
2022-10-26T16:36:20.999Z,16.95
2022-10-26T16:39:22.516Z,16.86
2022-10-26T16:42:24.219Z,16.69
2022-10-26T16:45:25.621Z,16.61
2022-10-26T16:48:27.119Z,16.49
2022-10-26T16:51:30.600Z,16.37
